MA60 weather

St Luke's Hospital Heliport
Middleborough, Massachusetts, United States

Public forecast

Using degrees Fahrenheit for public forecast. Weather courtesy of forecast.io.

Closest aviation weather report (METAR) to St Luke's Hospital Heliport

Closest report is Taunton Municipal King Field, 4.7 nm (8.7 km) WSW. Retrieved 2020/08/03 11:52 UTC (18 minutes ago):

KTAN 031152Z AUTO 23008KT 10SM CLR 28/24 A2994 RMK AO2 SLP138 T02830239 10283 20261 53012

Closest aviation forecast (TAF) to St Luke's Hospital Heliport

Closest forecast is Cape Cod Coast Guard Air Station, 22.6 nm (41.9 km) SE. Retrieved 2020/08/03 12:28 UTC (0 seconds ago):

TAF KFMH 031126Z 0312/0412 23012KT 5SM BR BKN008 FM031300 23013G18KT P6SM SCT200 FM031800 23015G23KT P6SM SCT200 FM040000 23009KT P6SM SCT150 FM040700 23005KT 2SM BR BKN120 FM041000 20004KT 1SM BR BKN015 FM041100 20005KT 2SM BR BKN020